Time;durP1;ratioP1;P1;durP2;ratioP2;P2;SDS_P1;SDS_P2;PMS_P1;PMS_P2;Temp;Humidity;BMP_temperature;BMP_pressure;BME280_temperature;BME280_humidity;BME280_pressure;Samples;Min_cycle;Max_cycle;Signal;HPM_P1;HPM_P2
2024/01/30 00:00:32;;;;;;;31.47;28.33;;;3.60;88.70;;;;;;5081928;28;20179;-87
2024/01/30 00:02:58;;;;;;;30.80;28.00;;;3.60;88.80;;;;;;5081645;28;20179;-87
2024/01/30 00:05:23;;;;;;;30.53;26.97;;;3.70;89.30;;;;;;5081812;28;20194;-87
2024/01/30 00:07:49;;;;;;;31.40;27.90;;;3.80;89.60;;;;;;5081954;28;20194;-87
2024/01/30 00:10:14;;;;;;;30.37;27.37;;;3.80;89.80;;;;;;5081965;28;20720;-87
2024/01/30 00:12:40;;;;;;;30.13;27.13;;;3.90;89.90;;;;;;5082848;28;20174;-87
2024/01/30 00:15:08;;;;;;;30.27;27.23;;;3.80;89.90;;;;;;5082562;28;20184;-87
2024/01/30 00:17:33;;;;;;;31.63;28.40;;;3.80;90.00;;;;;;5100754;28;20183;-87
2024/01/30 00:19:59;;;;;;;31.43;27.97;;;3.90;90.10;;;;;;5100152;28;20181;-87
2024/01/30 00:22:24;;;;;;;30.63;26.57;;;3.90;90.40;;;;;;5098630;28;20178;-87
2024/01/30 00:24:50;;;;;;;27.70;24.87;;;4.00;90.50;;;;;;5096898;28;20637;-88
2024/01/30 00:27:16;;;;;;;27.40;24.70;;;3.90;90.40;;;;;;5078313;28;20680;-88
2024/01/30 00:29:41;;;;;;;31.23;25.80;;;3.80;90.20;;;;;;5078275;28;20202;-88
2024/01/30 00:32:07;;;;;;;28.93;26.13;;;3.70;90.30;;;;;;5078784;28;20174;-88
2024/01/30 00:34:32;;;;;;;29.37;26.47;;;3.70;90.20;;;;;;5078280;28;20200;-88
2024/01/30 00:36:58;;;;;;;29.60;26.63;;;3.60;90.20;;;;;;5078113;28;20193;-88
2024/01/30 00:39:23;;;;;;;30.53;27.53;;;3.60;90.10;;;;;;5078027;28;20186;-88
2024/01/30 00:42:01;;;;;;;31.07;27.77;;;3.60;90.10;;;;;;5096375;28;20269;-89
2024/01/30 00:44:27;;;;;;;29.20;26.47;;;3.60;90.00;;;;;;5078032;28;20230;-89
2024/01/30 00:46:53;;;;;;;31.33;28.23;;;3.60;90.00;;;;;;5078496;28;20291;-90
2024/01/30 00:49:19;;;;;;;31.47;28.30;;;3.50;89.90;;;;;;5079026;28;20654;-90
2024/01/30 00:51:45;;;;;;;32.10;28.97;;;3.50;89.80;;;;;;5077859;28;20181;-90
2024/01/30 00:54:11;;;;;;;32.67;29.47;;;3.60;89.70;;;;;;5077658;28;20178;-90
2024/01/30 00:56:36;;;;;;;30.67;27.73;;;3.60;89.70;;;;;;5077983;28;20201;-90
2024/01/30 00:59:02;;;;;;;30.47;27.20;;;3.60;89.50;;;;;;5077696;28;20217;-89
2024/01/30 01:01:28;;;;;;;29.20;26.37;;;3.60;89.50;;;;;;5077361;28;20197;-89
2024/01/30 01:03:54;;;;;;;48.30;44.20;;;3.60;89.30;;;;;;5095337;28;20224;-88
2024/01/30 01:06:19;;;;;;;46.90;43.10;;;3.60;89.00;;;;;;5077811;28;20191;-88
2024/01/30 01:08:45;;;;;;;45.63;41.93;;;3.60;89.00;;;;;;5077522;28;20578;-88
2024/01/30 01:11:10;;;;;;;48.63;44.70;;;3.60;89.20;;;;;;5077195;28;20274;-88
2024/01/30 01:13:36;;;;;;;49.67;45.63;;;3.50;89.30;;;;;;5095317;28;20166;-88
2024/01/30 01:16:01;;;;;;;49.07;44.67;;;3.50;89.50;;;;;;5095215;28;20167;-88
2024/01/30 01:18:27;;;;;;;46.43;42.73;;;3.60;89.70;;;;;;5095200;28;20226;-88
2024/01/30 01:20:52;;;;;;;45.70;41.87;;;3.60;89.90;;;;;;5077004;28;20179;-88
2024/01/30 01:23:18;;;;;;;45.77;41.53;;;3.60;90.00;;;;;;5095421;28;20258;-88
2024/01/30 01:25:44;;;;;;;44.10;40.20;;;3.60;90.20;;;;;;5095089;28;20303;-88
2024/01/30 01:28:09;;;;;;;43.43;39.80;;;3.60;90.30;;;;;;5076859;28;20569;-88
2024/01/30 01:30:35;;;;;;;44.73;40.63;;;3.60;90.40;;;;;;5076764;28;20221;-88
2024/01/30 01:33:02;;;;;;;43.10;39.37;;;3.60;90.50;;;;;;5095291;28;20174;-88
2024/01/30 01:35:27;;;;;;;43.63;39.73;;;3.60;90.60;;;;;;5094021;28;20186;-88
2024/01/30 01:37:59;;;;;;;45.43;41.63;;;3.70;90.60;;;;;;5094763;28;20267;-88
2024/01/30 01:40:25;;;;;;;43.37;39.70;;;3.70;90.70;;;;;;5076788;28;20170;-87
2024/01/30 01:42:54;;;;;;;44.07;40.10;;;3.70;90.60;;;;;;5076556;28;20175;-88
2024/01/30 01:45:20;;;;;;;44.90;41.27;;;3.80;90.60;;;;;;5076736;28;20170;-87
2024/01/30 01:47:50;;;;;;;44.07;40.20;;;3.70;90.60;;;;;;5076416;28;20198;-88
2024/01/30 01:50:19;;;;;;;45.37;41.67;;;3.80;90.60;;;;;;5094578;28;20201;-88
2024/01/30 01:52:47;;;;;;;44.87;41.07;;;3.80;90.60;;;;;;5076394;28;20167;-88
2024/01/30 01:55:14;;;;;;;46.40;42.13;;;3.80;90.60;;;;;;5094915;28;20170;-88
2024/01/30 01:57:40;;;;;;;45.47;41.77;;;3.80;90.60;;;;;;5076342;28;20201;-88
2024/01/30 02:00:07;;;;;;;46.37;42.57;;;3.80;90.30;;;;;;5076328;28;20202;-88
2024/01/30 02:02:36;;;;;;;46.73;43.00;;;3.70;90.30;;;;;;5094365;28;20205;-88
2024/01/30 02:05:01;;;;;;;43.10;39.30;;;3.70;90.30;;;;;;5076168;28;20201;-87
2024/01/30 02:07:28;;;;;;;44.37;40.47;;;3.80;90.50;;;;;;5076274;28;20194;-88
2024/01/30 02:09:55;;;;;;;43.10;39.53;;;3.80;90.50;;;;;;5076049;28;20562;-88
2024/01/30 02:12:20;;;;;;;43.07;39.67;;;3.80;90.50;;;;;;5094181;28;20167;-88
2024/01/30 02:14:47;;;;;;;44.23;40.70;;;3.70;90.50;;;;;;5094403;28;20174;-88
2024/01/30 02:17:13;;;;;;;42.50;38.87;;;3.70;90.50;;;;;;5094064;28;20567;-88
2024/01/30 02:19:39;;;;;;;41.57;37.87;;;3.70;90.50;;;;;;5075882;28;20209;-87
2024/01/30 02:22:05;;;;;;;42.23;39.00;;;3.70;90.50;;;;;;5075911;28;20651;-88
2024/01/30 02:24:30;;;;;;;41.33;38.17;;;3.70;90.40;;;;;;5075981;28;20276;-88
2024/01/30 02:26:56;;;;;;;43.03;39.43;;;3.70;90.30;;;;;;5075706;28;20566;-88
2024/01/30 02:29:21;;;;;;;43.10;39.50;;;3.70;90.20;;;;;;5075689;28;20195;-88
2024/01/30 02:31:47;;;;;;;43.07;39.67;;;3.70;90.20;;;;;;5076125;28;20182;-88
2024/01/30 02:34:13;;;;;;;44.03;40.33;;;3.70;90.10;;;;;;5075785;28;20178;-88
2024/01/30 02:36:41;;;;;;;26.50;23.90;;;3.70;89.90;;;;;;5093755;28;20194;-88
2024/01/30 02:39:07;;;;;;;27.37;24.63;;;3.70;89.80;;;;;;5075662;28;20178;-88
2024/01/30 02:41:33;;;;;;;28.77;26.17;;;3.70;89.80;;;;;;5075698;28;20224;-88
2024/01/30 02:43:59;;;;;;;27.50;25.10;;;3.70;89.70;;;;;;5075557;28;20529;-88
2024/01/30 02:46:24;;;;;;;27.20;24.80;;;3.70;89.80;;;;;;5075162;28;20298;-88
2024/01/30 02:48:50;;;;;;;27.37;24.43;;;3.70;89.70;;;;;;5075467;28;20205;-88
2024/01/30 02:51:15;;;;;;;28.93;25.90;;;3.70;89.70;;;;;;5076726;28;20182;-88
2024/01/30 02:53:41;;;;;;;27.90;25.47;;;3.70;89.70;;;;;;5075620;28;20654;-88
2024/01/30 02:56:09;;;;;;;28.03;25.30;;;3.70;89.60;;;;;;5093540;28;20194;-88
2024/01/30 02:58:35;;;;;;;27.33;25.03;;;3.60;89.60;;;;;;5075478;28;20182;-88
2024/01/30 03:01:01;;;;;;;26.47;24.07;;;3.50;89.60;;;;;;5093544;28;20531;-88
2024/01/30 03:03:26;;;;;;;27.73;25.43;;;3.60;89.70;;;;;;5075249;28;20190;-88
2024/01/30 03:05:52;;;;;;;27.20;24.80;;;3.60;89.60;;;;;;5093426;28;20166;-88
2024/01/30 03:08:17;;;;;;;27.77;25.27;;;3.50;89.40;;;;;;5075423;28;20174;-88
2024/01/30 03:10:43;;;;;;;28.30;25.80;;;3.50;89.30;;;;;;5093326;28;20229;-88
2024/01/30 03:13:08;;;;;;;28.57;26.07;;;3.40;89.30;;;;;;5075610;28;20265;-88
2024/01/30 03:15:34;;;;;;;28.60;26.20;;;3.40;89.20;;;;;;5075377;28;20527;-88
2024/01/30 03:17:59;;;;;;;27.77;25.20;;;3.30;89.20;;;;;;5093587;28;20695;-88
2024/01/30 03:20:25;;;;;;;31.67;25.30;;;3.30;89.20;;;;;;5075315;28;20186;-88
2024/01/30 03:22:50;;;;;;;27.70;25.07;;;3.30;89.50;;;;;;5075242;28;20205;-88
2024/01/30 03:25:16;;;;;;;32.13;24.00;;;3.30;89.60;;;;;;5075335;28;20273;-88
2024/01/30 03:27:41;;;;;;;26.43;23.83;;;3.30;89.60;;;;;;5093150;28;20201;-88
2024/01/30 03:30:07;;;;;;;24.87;22.53;;;3.20;89.60;;;;;;5075280;28;20205;-88
2024/01/30 03:32:33;;;;;;;25.97;23.63;;;3.20;89.60;;;;;;5093124;28;20182;-88
2024/01/30 03:34:59;;;;;;;26.67;24.17;;;3.20;89.60;;;;;;5093217;28;20170;-88
2024/01/30 03:37:24;;;;;;;28.60;25.90;;;3.20;89.60;;;;;;5074910;28;20246;-88
2024/01/30 03:39:50;;;;;;;40.10;36.87;;;3.10;89.60;;;;;;5075102;28;20177;-88
2024/01/30 03:42:15;;;;;;;43.00;39.27;;;3.20;89.70;;;;;;5093358;28;20177;-88
2024/01/30 03:44:41;;;;;;;42.43;39.03;;;3.20;89.70;;;;;;5093095;28;20179;-88
2024/01/30 03:47:07;;;;;;;41.67;37.97;;;3.10;89.70;;;;;;5075036;28;20292;-88
2024/01/30 03:49:32;;;;;;;43.67;40.13;;;3.10;89.80;;;;;;5074889;28;20201;-88
2024/01/30 03:51:58;;;;;;;41.43;38.17;;;3.20;89.80;;;;;;5093029;28;20178;-88
2024/01/30 03:54:23;;;;;;;43.47;39.77;;;3.10;89.80;;;;;;5075089;28;20175;-88
2024/01/30 03:56:49;;;;;;;41.63;37.90;;;3.20;89.90;;;;;;5074947;28;20213;-88
2024/01/30 03:59:15;;;;;;;42.67;39.10;;;3.20;90.00;;;;;;5078215;28;20183;-87
2024/01/30 04:01:40;;;;;;;41.87;38.43;;;3.30;90.10;;;;;;5078732;28;20175;-88
2024/01/30 04:04:06;;;;;;;40.27;37.00;;;3.30;90.10;;;;;;5096611;28;20272;-88
2024/01/30 04:06:31;;;;;;;40.87;37.53;;;3.20;90.00;;;;;;5097014;28;20273;-88
2024/01/30 04:08:57;;;;;;;39.67;36.57;;;3.20;90.10;;;;;;5078428;28;20244;-88
2024/01/30 04:11:22;;;;;;;41.93;38.40;;;3.30;90.20;;;;;;5078474;28;20166;-88
2024/01/30 04:13:48;;;;;;;42.60;38.90;;;3.30;90.30;;;;;;5078340;28;20189;-88
2024/01/30 04:16:23;;;;;;;39.20;35.90;;;3.40;90.30;;;;;;5096512;28;20194;-88
2024/01/30 04:18:49;;;;;;;41.30;37.70;;;3.40;90.30;;;;;;5096685;28;20599;-88
2024/01/30 04:21:14;;;;;;;41.43;37.97;;;3.40;90.30;;;;;;5078204;28;20181;-87
2024/01/30 04:23:41;;;;;;;42.10;38.70;;;3.30;90.30;;;;;;5078579;28;20664;-88
2024/01/30 04:26:06;;;;;;;40.77;37.60;;;3.40;90.50;;;;;;5078125;28;20206;-88
2024/01/30 04:28:32;;;;;;;42.30;38.80;;;3.40;90.40;;;;;;5078042;28;20542;-87
2024/01/30 04:30:57;;;;;;;42.87;39.47;;;3.30;90.30;;;;;;5078218;28;20228;-87
2024/01/30 04:33:23;;;;;;;44.43;40.63;;;3.30;90.30;;;;;;5096246;28;20531;-88
2024/01/30 04:35:48;;;;;;;42.53;39.13;;;3.30;90.40;;;;;;5096380;28;20246;-88
2024/01/30 04:38:14;;;;;;;42.53;39.03;;;3.30;90.40;;;;;;5077961;28;20170;-88
2024/01/30 04:40:40;;;;;;;42.20;38.57;;;3.30;90.40;;;;;;5077893;28;20185;-88
2024/01/30 04:43:06;;;;;;;42.17;38.87;;;3.30;90.40;;;;;;5095987;28;20209;-88
2024/01/30 04:45:31;;;;;;;40.60;37.13;;;3.30;90.40;;;;;;5077773;28;20184;-87
2024/01/30 04:47:57;;;;;;;40.70;37.20;;;3.30;90.40;;;;;;5077658;28;20193;-88
2024/01/30 04:50:23;;;;;;;43.93;40.40;;;3.20;90.40;;;;;;5095787;28;20194;-88
2024/01/30 04:52:49;;;;;;;44.30;40.80;;;3.20;90.40;;;;;;5077876;28;20583;-87
2024/01/30 04:55:14;;;;;;;44.47;40.77;;;3.20;90.40;;;;;;5095712;28;20170;-88
2024/01/30 04:57:40;;;;;;;44.37;40.87;;;3.20;90.40;;;;;;5077487;28;20196;-88
2024/01/30 05:00:06;;;;;;;29.00;26.30;;;3.20;90.40;;;;;;5077525;28;20210;-88
2024/01/30 05:02:32;;;;;;;31.07;28.07;;;3.20;90.50;;;;;;5095939;28;20268;-88
2024/01/30 05:04:58;;;;;;;29.13;26.40;;;3.30;90.60;;;;;;5077502;28;20229;-87
2024/01/30 05:07:25;;;;;;;29.90;27.17;;;3.30;90.80;;;;;;5077457;28;20685;-88
2024/01/30 05:09:50;;;;;;;29.07;26.47;;;3.30;90.80;;;;;;5077089;28;20551;-88
2024/01/30 05:12:16;;;;;;;28.30;25.37;;;3.40;90.90;;;;;;5077638;28;20180;-88
2024/01/30 05:14:41;;;;;;;28.33;25.60;;;3.40;90.80;;;;;;5095952;28;20637;-88
2024/01/30 05:17:09;;;;;;;27.33;24.83;;;3.40;90.80;;;;;;5077122;28;20201;-88
2024/01/30 05:19:34;;;;;;;27.93;25.33;;;3.40;90.90;;;;;;5077090;28;20214;-88
2024/01/30 05:22:00;;;;;;;27.73;25.27;;;3.40;90.90;;;;;;5077531;28;20177;-88
2024/01/30 05:24:25;;;;;;;27.43;24.33;;;3.50;91.00;;;;;;5077202;28;20262;-88
2024/01/30 05:26:51;;;;;;;27.70;25.00;;;3.50;91.00;;;;;;5095214;28;20198;-88
2024/01/30 05:29:17;;;;;;;26.53;23.80;;;3.60;91.10;;;;;;5095286;28;20193;-88
2024/01/30 05:31:42;;;;;;;26.53;24.10;;;3.50;91.00;;;;;;5095028;28;20515;-88
2024/01/30 05:34:08;;;;;;;28.80;25.77;;;3.50;91.00;;;;;;5076901;28;20528;-88
2024/01/30 05:36:34;;;;;;;28.70;25.93;;;3.50;91.00;;;;;;5076810;28;20243;-88
2024/01/30 05:39:00;;;;;;;27.87;25.37;;;3.50;91.10;;;;;;5094992;28;20183;-88
2024/01/30 05:41:25;;;;;;;27.97;25.17;;;3.50;91.10;;;;;;5076807;28;20177;-88
2024/01/30 05:43:54;;;;;;;27.37;24.63;;;3.50;91.10;;;;;;5076691;28;20186;-88
2024/01/30 05:46:20;;;;;;;27.47;24.57;;;3.50;91.20;;;;;;5076763;28;20197;-88
2024/01/30 05:48:45;;;;;;;27.07;24.37;;;3.50;91.20;;;;;;5076583;28;20262;-88
2024/01/30 05:51:11;;;;;;;29.37;26.40;;;3.50;91.20;;;;;;5077463;28;20174;-88
2024/01/30 05:53:36;;;;;;;27.20;24.37;;;3.50;91.30;;;;;;5094995;28;20166;-88
2024/01/30 05:56:02;;;;;;;26.33;23.67;;;3.50;91.30;;;;;;5076503;28;20177;-88
2024/01/30 05:58:28;;;;;;;27.87;25.00;;;3.50;91.30;;;;;;5076561;28;20557;-88
2024/01/30 06:00:54;;;;;;;28.43;25.60;;;3.40;91.40;;;;;;5094520;28;20166;-88
2024/01/30 06:03:19;;;;;;;27.90;25.13;;;3.50;91.40;;;;;;5076149;28;20186;-88
2024/01/30 06:05:45;;;;;;;29.07;25.23;;;3.50;91.50;;;;;;5094906;28;20240;-88
2024/01/30 06:08:10;;;;;;;26.37;23.93;;;3.50;91.50;;;;;;5076432;28;20205;-88
2024/01/30 06:10:36;;;;;;;27.10;24.23;;;3.50;91.50;;;;;;5076102;28;20208;-88
2024/01/30 06:13:02;;;;;;;28.27;24.63;;;3.40;91.50;;;;;;5076279;28;20181;-88
2024/01/30 06:15:29;;;;;;;27.23;24.40;;;3.40;91.60;;;;;;5076155;28;20264;-88
2024/01/30 06:17:55;;;;;;;34.13;30.87;;;3.50;91.70;;;;;;5076158;28;20210;-88
2024/01/30 06:20:20;;;;;;;33.07;30.00;;;3.50;91.70;;;;;;5093498;28;20181;-88
2024/01/30 06:22:46;;;;;;;35.00;31.43;;;3.40;91.70;;;;;;5076842;28;20183;-87
2024/01/30 06:25:12;;;;;;;34.97;31.50;;;3.40;91.70;;;;;;5076880;28;20188;-87
2024/01/30 06:27:37;;;;;;;37.13;33.53;;;3.30;91.70;;;;;;5076477;28;20198;-87
2024/01/30 06:30:04;;;;;;;37.73;33.97;;;3.30;91.60;;;;;;5095093;28;20197;-88
2024/01/30 06:32:34;;;;;;;40.63;36.70;;;3.30;91.60;;;;;;5077258;28;20203;-88
2024/01/30 06:35:03;;;;;;;39.13;35.83;;;3.30;91.70;;;;;;5077235;28;20169;-87
2024/01/30 06:37:28;;;;;;;39.50;35.80;;;3.30;91.70;;;;;;5077077;28;20280;-88
2024/01/30 06:39:53;;;;;;;43.00;39.10;;;3.30;91.70;;;;;;5076589;28;20213;-88
2024/01/30 06:42:19;;;;;;;44.47;40.57;;;3.30;91.70;;;;;;5076981;28;20201;-88
2024/01/30 06:44:45;;;;;;;41.43;37.63;;;3.20;91.70;;;;;;5095860;28;20709;-88
2024/01/30 06:47:11;;;;;;;39.50;36.17;;;3.30;91.80;;;;;;5076597;28;20209;-87
2024/01/30 06:49:38;;;;;;;42.40;38.27;;;3.30;91.80;;;;;;5076302;28;20205;-88
2024/01/30 06:52:05;;;;;;;41.13;37.53;;;3.30;91.80;;;;;;5076548;28;20174;-88
2024/01/30 06:54:31;;;;;;;42.67;39.07;;;3.30;91.80;;;;;;5094446;28;20185;-88
2024/01/30 06:56:56;;;;;;;40.80;36.83;;;3.40;91.90;;;;;;5076432;28;20194;-87
2024/01/30 06:59:22;;;;;;;41.27;37.47;;;3.40;91.90;;;;;;5076145;28;20717;-87
2024/01/30 07:01:47;;;;;;;40.97;37.27;;;3.40;91.90;;;;;;5076215;28;20195;-87
2024/01/30 07:04:13;;;;;;;44.73;40.57;;;3.30;91.80;;;;;;5076307;28;20538;-87
2024/01/30 07:06:39;;;;;;;46.33;42.40;;;3.30;91.80;;;;;;5075813;28;20674;-87
2024/01/30 07:09:05;;;;;;;49.00;44.73;;;3.30;91.80;;;;;;5076268;28;20239;-87
2024/01/30 07:11:30;;;;;;;49.43;45.23;;;3.30;91.80;;;;;;5094483;28;20602;-88
2024/01/30 07:13:56;;;;;;;45.27;41.37;;;3.30;91.80;;;;;;5076361;28;20185;-87
2024/01/30 07:16:25;;;;;;;49.57;45.17;;;3.30;91.90;;;;;;5076265;28;20251;-87
2024/01/30 07:18:50;;;;;;;48.33;43.93;;;3.30;91.90;;;;;;5094604;28;20184;-87
2024/01/30 07:21:16;;;;;;;49.13;44.90;;;3.30;91.90;;;;;;5076578;28;20268;-88
2024/01/30 07:23:42;;;;;;;45.17;41.27;;;3.30;92.00;;;;;;5076110;28;20553;-87
2024/01/30 07:26:08;;;;;;;42.73;38.93;;;3.30;92.00;;;;;;5076161;28;20334;-87
2024/01/30 07:28:34;;;;;;;44.13;40.23;;;3.30;92.00;;;;;;5076170;28;20181;-87
2024/01/30 07:31:01;;;;;;;42.70;39.00;;;3.40;92.10;;;;;;5094675;28;20177;-87
2024/01/30 07:33:26;;;;;;;43.17;39.37;;;3.50;92.20;;;;;;5080044;28;20177;-88
2024/01/30 07:35:53;;;;;;;43.80;37.80;;;3.50;92.20;;;;;;5098485;28;20223;-87
2024/01/30 07:38:18;;;;;;;42.43;38.53;;;3.60;92.30;;;;;;5079936;28;20197;-87
2024/01/30 07:40:44;;;;;;;41.60;37.70;;;3.70;92.40;;;;;;5080103;28;20177;-88
2024/01/30 07:43:10;;;;;;;39.70;35.73;;;3.80;92.50;;;;;;5080303;28;20182;-88
2024/01/30 07:45:37;;;;;;;40.43;36.47;;;3.90;92.50;;;;;;5098034;28;20202;-88
2024/01/30 07:48:02;;;;;;;37.60;34.20;;;3.80;92.50;;;;;;5079649;28;20197;-88
2024/01/30 07:50:28;;;;;;;37.70;34.23;;;3.90;92.70;;;;;;5079584;28;20745;-87
2024/01/30 07:52:56;;;;;;;39.47;35.63;;;4.00;92.70;;;;;;5078511;28;20815;-87
2024/01/30 07:55:28;;;;;;;40.77;36.57;;;4.10;92.70;;;;;;5079188;28;20174;-88
2024/01/30 07:57:54;;;;;;;38.70;34.83;;;4.20;92.70;;;;;;5079112;28;20215;-88
2024/01/30 08:00:21;;;;;;;37.47;33.90;;;4.20;92.70;;;;;;5079696;28;20178;-88
2024/01/30 08:02:46;;;;;;;28.23;25.33;;;4.20;92.70;;;;;;5079330;28;20210;-88
2024/01/30 08:05:14;;;;;;;29.07;25.13;;;4.30;92.70;;;;;;5078968;28;20233;-88
2024/01/30 08:07:40;;;;;;;28.47;25.47;;;4.30;92.60;;;;;;5079077;28;20199;-88
2024/01/30 08:10:06;;;;;;;30.80;25.47;;;4.30;92.70;;;;;;5079152;28;20288;-88
2024/01/30 08:12:31;;;;;;;28.30;25.30;;;4.50;92.70;;;;;;5079180;28;20178;-88
2024/01/30 08:14:57;;;;;;;30.20;25.70;;;4.50;92.70;;;;;;5078987;28;20167;-87
2024/01/30 08:17:22;;;;;;;28.73;24.67;;;4.60;92.70;;;;;;5097224;28;20204;-88
2024/01/30 08:19:48;;;;;;;27.60;24.83;;;4.70;92.70;;;;;;5079175;28;20174;-88
2024/01/30 08:22:13;;;;;;;26.37;23.67;;;4.80;92.70;;;;;;5097544;28;20280;-88
2024/01/30 08:24:40;;;;;;;28.40;25.50;;;4.80;92.70;;;;;;5079425;28;20178;-87
2024/01/30 08:27:09;;;;;;;28.97;26.13;;;4.90;92.60;;;;;;5097482;28;20201;-88
2024/01/30 08:29:35;;;;;;;29.10;25.97;;;4.90;92.50;;;;;;5097088;28;20267;-88
2024/01/30 08:32:01;;;;;;;27.60;24.77;;;5.00;92.40;;;;;;5078922;28;20180;-88
2024/01/30 08:34:27;;;;;;;32.07;25.50;;;5.10;92.40;;;;;;5097062;28;20163;-88
2024/01/30 08:36:52;;;;;;;28.57;25.60;;;5.10;92.30;;;;;;5096654;28;20187;-87
2024/01/30 08:39:18;;;;;;;28.90;25.93;;;5.10;92.20;;;;;;5096874;28;20167;-88
2024/01/30 08:41:44;;;;;;;30.80;26.10;;;5.10;92.20;;;;;;5078534;28;20175;-88
2024/01/30 08:44:11;;;;;;;28.07;25.07;;;5.20;92.10;;;;;;5077599;28;20184;-88
2024/01/30 08:46:36;;;;;;;29.20;24.53;;;5.20;92.10;;;;;;5078744;28;20198;-87
2024/01/30 08:49:04;;;;;;;35.13;24.40;;;5.30;92.10;;;;;;5096450;28;20221;-87
2024/01/30 08:51:29;;;;;;;28.43;25.33;;;5.30;92.00;;;;;;5078180;28;20719;-88
2024/01/30 08:53:55;;;;;;;27.33;24.50;;;5.30;92.00;;;;;;5078814;28;20174;-88
2024/01/30 08:56:20;;;;;;;33.87;30.43;;;5.30;92.00;;;;;;5077815;28;20198;-88
2024/01/30 08:58:46;;;;;;;34.27;29.40;;;5.30;92.00;;;;;;5078185;28;20167;-88
2024/01/30 09:01:11;;;;;;;31.43;28.53;;;5.30;92.00;;;;;;5078182;28;20206;-88
2024/01/30 09:03:39;;;;;;;32.30;29.10;;;5.40;92.10;;;;;;5078058;28;20680;-88
2024/01/30 09:06:11;;;;;;;33.55;29.85;;;5.40;92.00;;;;;;5078032;28;20181;-88
2024/01/30 09:08:37;;;;;;;;;;;5.50;92.10;;;;;;5078366;28;19904;-87
2024/01/30 09:11:08;;;;;;;;;;;5.70;92.10;;;;;;5078023;28;19911;-87
2024/01/30 09:13:34;;;;;;;;;;;5.80;91.70;;;;;;5078853;28;19904;-88
2024/01/30 09:15:59;;;;;;;;;;;5.80;91.60;;;;;;5077905;28;20374;-88
2024/01/30 09:18:24;;;;;;;;;;;5.90;91.40;;;;;;5077861;28;20367;-88
2024/01/30 09:20:50;;;;;;;;;;;5.90;91.30;;;;;;5078157;28;19973;-88
2024/01/30 09:23:17;;;;;;;;;;;5.90;91.20;;;;;;5078646;28;20023;-88
2024/01/30 09:25:42;;;;;;;;;;;5.90;91.20;;;;;;5078228;28;19904;-88
2024/01/30 09:28:08;;;;;;;;;;;5.90;91.30;;;;;;5078224;28;19904;-87
2024/01/30 09:30:34;;;;;;;;;;;5.90;91.40;;;;;;5096636;28;19999;-88
2024/01/30 09:32:59;;;;;;;;;;;6.10;91.30;;;;;;5078629;28;19907;-88
2024/01/30 09:35:25;;;;;;;;;;;6.10;91.30;;;;;;5077966;28;20429;-88
2024/01/30 09:37:52;;;;;;;28.37;25.57;;;6.20;91.30;;;;;;5078742;28;20372;-88
2024/01/30 09:40:18;;;;;;;28.27;24.53;;;6.20;91.30;;;;;;5079940;28;20586;-88
2024/01/30 09:42:48;;;;;;;27.70;24.73;;;6.20;91.30;;;;;;5077715;28;20187;-88
2024/01/30 09:45:14;;;;;;;28.13;25.17;;;6.30;91.20;;;;;;5077495;28;20182;-90
2024/01/30 09:47:42;;;;;;;27.40;24.50;;;6.30;91.20;;;;;;5096022;28;20191;-88
2024/01/30 09:50:09;;;;;;;28.03;25.13;;;6.40;91.10;;;;;;5078757;28;20194;-88
2024/01/30 09:52:35;;;;;;;28.53;25.63;;;6.40;91.10;;;;;;5096348;28;20167;-88
2024/01/30 09:55:02;;;;;;;28.63;25.70;;;6.50;91.10;;;;;;5076891;28;20171;-87
2024/01/30 09:57:27;;;;;;;27.83;24.93;;;6.50;91.00;;;;;;5076502;28;20199;-88
2024/01/30 09:59:56;;;;;;;28.13;25.33;;;6.60;91.00;;;;;;5076809;28;20202;-88
2024/01/30 10:02:22;;;;;;;29.43;25.33;;;6.60;90.80;;;;;;5076914;28;20182;-88
2024/01/30 10:04:52;;;;;;;26.40;23.67;;;6.70;90.80;;;;;;5095370;28;20278;-87
2024/01/30 10:07:18;;;;;;;31.17;24.87;;;6.70;90.60;;;;;;5076559;28;20198;-88
2024/01/30 10:09:44;;;;;;;27.50;24.50;;;6.80;90.50;;;;;;5076222;28;20217;-88
2024/01/30 10:12:10;;;;;;;26.30;23.70;;;6.80;90.50;;;;;;5076436;28;20655;-87
2024/01/30 10:14:39;;;;;;;27.47;24.53;;;6.80;90.60;;;;;;5076592;28;20177;-88
2024/01/30 10:17:09;;;;;;;28.50;25.30;;;6.90;90.60;;;;;;5076408;28;20191;-88
2024/01/30 10:19:35;;;;;;;27.77;24.97;;;7.00;90.50;;;;;;5077123;28;20182;-88
2024/01/30 10:22:01;;;;;;;28.63;25.30;;;7.00;90.50;;;;;;5094571;28;20166;-88
2024/01/30 10:24:26;;;;;;;29.77;26.57;;;7.10;90.50;;;;;;5076557;28;20560;-88
2024/01/30 10:26:53;;;;;;;28.17;25.37;;;7.10;90.50;;;;;;5094355;28;20697;-88
2024/01/30 10:29:18;;;;;;;30.97;27.60;;;7.20;90.40;;;;;;5094269;28;20198;-88
2024/01/30 10:31:44;;;;;;;28.67;25.87;;;7.20;90.40;;;;;;5094396;28;20183;-88
2024/01/30 10:34:10;;;;;;;29.80;26.57;;;7.30;90.40;;;;;;5075976;28;20182;-88
2024/01/30 10:36:43;;;;;;;29.57;26.47;;;7.30;90.30;;;;;;5075854;28;20190;-88
2024/01/30 10:39:08;;;;;;;28.93;25.83;;;7.40;90.30;;;;;;5075993;28;20630;-88
2024/01/30 10:41:42;;;;;;;27.40;24.77;;;7.50;90.20;;;;;;5094332;28;20179;-89
2024/01/30 10:44:09;;;;;;;27.03;24.47;;;7.60;90.10;;;;;;5076256;28;20257;-89
2024/01/30 10:46:37;;;;;;;27.80;24.97;;;7.60;89.90;;;;;;5076558;28;20561;-88
2024/01/30 10:49:04;;;;;;;27.67;25.00;;;7.80;89.40;;;;;;5076056;28;20205;-88
2024/01/30 10:51:31;;;;;;;27.47;24.43;;;7.90;88.80;;;;;;5076171;28;20221;-88
2024/01/30 10:53:58;;;;;;;24.07;21.43;;;8.00;88.30;;;;;;5076806;28;20574;-88
2024/01/30 10:56:24;;;;;;;24.27;21.93;;;8.00;88.20;;;;;;5093964;28;20194;-88
2024/01/30 10:58:52;;;;;;;23.30;21.17;;;8.10;87.90;;;;;;5094657;28;20167;-88
2024/01/30 11:01:20;;;;;;;23.77;21.43;;;8.20;87.70;;;;;;5094226;28;20654;-88
2024/01/30 11:03:46;;;;;;;24.03;21.70;;;8.20;87.40;;;;;;5094753;28;20208;-88
2024/01/30 11:06:13;;;;;;;24.87;22.27;;;8.20;87.40;;;;;;5075572;28;20233;-88
2024/01/30 11:08:39;;;;;;;24.90;22.43;;;8.20;87.60;;;;;;5075413;28;20175;-88
2024/01/30 11:11:09;;;;;;;23.13;20.70;;;8.20;87.50;;;;;;5076211;28;20181;-88
2024/01/30 11:13:35;;;;;;;22.67;20.57;;;8.30;87.40;;;;;;5076002;28;20317;-88
2024/01/30 11:16:05;;;;;;;24.13;21.40;;;8.20;87.30;;;;;;5076242;28;20256;-88
2024/01/30 11:18:32;;;;;;;25.20;22.53;;;8.20;87.40;;;;;;5094896;28;20179;-88
2024/01/30 11:21:00;;;;;;;23.77;21.30;;;8.20;87.40;;;;;;5076469;28;20642;-89
2024/01/30 11:23:26;;;;;;;24.73;22.13;;;8.20;87.50;;;;;;5094603;28;20170;-88
2024/01/30 11:25:53;;;;;;;27.47;22.43;;;8.20;87.50;;;;;;5075545;28;20183;-88
2024/01/30 11:28:20;;;;;;;24.60;22.10;;;8.20;87.50;;;;;;5075854;28;20273;-89
2024/01/30 11:30:47;;;;;;;23.47;21.00;;;8.20;87.60;;;;;;5076709;28;20548;-88
2024/01/30 11:33:14;;;;;;;24.23;21.00;;;8.20;87.60;;;;;;5075848;28;20220;-88
2024/01/30 11:35:41;;;;;;;25.77;23.13;;;8.10;87.90;;;;;;5075690;28;20257;-88
2024/01/30 11:38:14;;;;;;;25.90;23.13;;;8.10;88.00;;;;;;5075855;28;20227;-88
2024/01/30 11:40:40;;;;;;;24.90;22.40;;;8.20;88.00;;;;;;5075481;28;20175;-88
2024/01/30 11:43:08;;;;;;;25.47;22.90;;;8.20;87.80;;;;;;5075696;28;20276;-88
2024/01/30 11:45:36;;;;;;;23.23;21.00;;;8.20;87.90;;;;;;5076620;28;20182;-88
2024/01/30 11:48:03;;;;;;;25.50;22.90;;;8.30;87.70;;;;;;5075809;28;20206;-87
2024/01/30 11:50:33;;;;;;;25.07;22.43;;;8.20;87.90;;;;;;5075704;28;20199;-88
2024/01/30 11:53:02;;;;;;;26.43;22.37;;;8.20;87.90;;;;;;5093700;28;20171;-88
2024/01/30 11:55:29;;;;;;;25.43;22.60;;;8.30;88.00;;;;;;5075434;28;20255;-88
2024/01/30 11:57:58;;;;;;;24.37;21.87;;;8.30;88.20;;;;;;5075626;28;20199;-88
2024/01/30 12:00:24;;;;;;;23.00;20.70;;;8.30;88.20;;;;;;5093670;28;20177;-88
2024/01/30 12:03:00;;;;;;;33.37;23.90;;;8.30;88.30;;;;;;5075614;28;19911;-88
2024/01/30 12:05:26;;;;;;;23.97;21.53;;;8.30;88.20;;;;;;5075374;28;20652;-88
2024/01/30 12:07:52;;;;;;;25.17;22.57;;;8.30;88.20;;;;;;5094103;28;20674;-88
2024/01/30 12:10:18;;;;;;;24.67;22.13;;;8.30;88.10;;;;;;5093321;28;20202;-87
2024/01/30 12:12:54;;;;;;;23.60;21.20;;;8.30;88.10;;;;;;5074658;28;20614;-87
2024/01/30 12:15:22;;;;;;;29.53;26.70;;;8.30;88.10;;;;;;5074970;28;20189;-88
2024/01/30 12:17:48;;;;;;;29.20;26.33;;;8.30;88.50;;;;;;5074603;28;20201;-87
2024/01/30 12:20:18;;;;;;;29.00;26.30;;;8.30;88.70;;;;;;5077584;28;20179;-88
2024/01/30 12:22:48;;;;;;;29.53;26.50;;;8.30;88.70;;;;;;5078418;28;20175;-88
2024/01/30 12:25:21;;;;;;;30.10;27.13;;;8.30;88.90;;;;;;5079071;28;20194;-88
2024/01/30 12:27:52;;;;;;;28.83;26.13;;;8.40;88.60;;;;;;5078158;28;20191;-89
2024/01/30 12:30:20;;;;;;;28.87;26.07;;;8.50;88.50;;;;;;5096170;28;20191;-88
2024/01/30 12:32:47;;;;;;;29.93;27.13;;;8.60;88.20;;;;;;5096107;28;20178;-88
2024/01/30 12:35:17;;;;;;;31.23;28.10;;;8.60;88.00;;;;;;5096104;28;20638;-88